sensor_id;sensor_type;location;lat;lon;timestamp;P1;durP1;ratioP1;P2;durP2;ratioP2
12493;SDS011;8260;51.422;6.786;2022-10-20T00:01:03;9.80;;;7.00;;
12493;SDS011;8260;51.422;6.786;2022-10-20T00:03:31;8.40;;;6.65;;
12493;SDS011;8260;51.422;6.786;2022-10-20T00:06:07;10.13;;;6.65;;
12493;SDS011;8260;51.422;6.786;2022-10-20T00:08:36;14.25;;;6.95;;
12493;SDS011;8260;51.422;6.786;2022-10-20T00:11:07;9.13;;;6.53;;
12493;SDS011;8260;51.422;6.786;2022-10-20T00:13:36;8.60;;;6.80;;
12493;SDS011;8260;51.422;6.786;2022-10-20T00:16:05;11.18;;;6.78;;
12493;SDS011;8260;51.422;6.786;2022-10-20T00:18:34;10.02;;;7.20;;
12493;SDS011;8260;51.422;6.786;2022-10-20T00:21:04;10.77;;;7.60;;
12493;SDS011;8260;51.422;6.786;2022-10-20T00:23:33;10.95;;;6.70;;
12493;SDS011;8260;51.422;6.786;2022-10-20T00:26:02;8.38;;;7.47;;
12493;SDS011;8260;51.422;6.786;2022-10-20T00:28:32;12.57;;;8.63;;
12493;SDS011;8260;51.422;6.786;2022-10-20T00:31:01;12.20;;;8.05;;
12493;SDS011;8260;51.422;6.786;2022-10-20T00:33:29;12.73;;;8.02;;
12493;SDS011;8260;51.422;6.786;2022-10-20T00:35:58;13.25;;;8.00;;
12493;SDS011;8260;51.422;6.786;2022-10-20T00:38:26;12.63;;;8.07;;
12493;SDS011;8260;51.422;6.786;2022-10-20T00:40:54;12.07;;;8.68;;
12493;SDS011;8260;51.422;6.786;2022-10-20T00:43:40;11.15;;;8.02;;
12493;SDS011;8260;51.422;6.786;2022-10-20T00:46:08;15.75;;;8.20;;
12493;SDS011;8260;51.422;6.786;2022-10-20T00:48:38;11.25;;;7.30;;
12493;SDS011;8260;51.422;6.786;2022-10-20T00:51:07;9.13;;;7.15;;
12493;SDS011;8260;51.422;6.786;2022-10-20T00:53:35;11.15;;;7.00;;
12493;SDS011;8260;51.422;6.786;2022-10-20T00:56:04;10.98;;;7.22;;
12493;SDS011;8260;51.422;6.786;2022-10-20T00:58:33;9.05;;;7.13;;
12493;SDS011;8260;51.422;6.786;2022-10-20T01:01:03;11.13;;;7.53;;
12493;SDS011;8260;51.422;6.786;2022-10-20T01:03:33;11.90;;;7.60;;
12493;SDS011;8260;51.422;6.786;2022-10-20T01:06:03;9.82;;;7.80;;
12493;SDS011;8260;51.422;6.786;2022-10-20T01:08:32;13.20;;;7.65;;
12493;SDS011;8260;51.422;6.786;2022-10-20T01:11:03;12.93;;;7.50;;
12493;SDS011;8260;51.422;6.786;2022-10-20T01:13:35;13.23;;;8.00;;
12493;SDS011;8260;51.422;6.786;2022-10-20T01:16:08;10.18;;;7.60;;
12493;SDS011;8260;51.422;6.786;2022-10-20T01:18:40;11.23;;;7.97;;
12493;SDS011;8260;51.422;6.786;2022-10-20T01:21:20;8.88;;;7.63;;
12493;SDS011;8260;51.422;6.786;2022-10-20T01:24:06;10.02;;;7.47;;
12493;SDS011;8260;51.422;6.786;2022-10-20T01:26:51;19.73;;;8.25;;
12493;SDS011;8260;51.422;6.786;2022-10-20T01:29:23;10.05;;;7.55;;
12493;SDS011;8260;51.422;6.786;2022-10-20T01:31:57;10.23;;;8.40;;
12493;SDS011;8260;51.422;6.786;2022-10-20T01:34:29;14.23;;;8.50;;
12493;SDS011;8260;51.422;6.786;2022-10-20T01:36:59;14.88;;;9.65;;
12493;SDS011;8260;51.422;6.786;2022-10-20T01:39:33;11.85;;;9.02;;
12493;SDS011;8260;51.422;6.786;2022-10-20T01:42:03;13.10;;;10.18;;
12493;SDS011;8260;51.422;6.786;2022-10-20T01:44:35;12.05;;;8.27;;
12493;SDS011;8260;51.422;6.786;2022-10-20T01:47:05;14.82;;;8.80;;
12493;SDS011;8260;51.422;6.786;2022-10-20T01:49:34;13.48;;;8.25;;
12493;SDS011;8260;51.422;6.786;2022-10-20T01:52:03;13.25;;;8.10;;
12493;SDS011;8260;51.422;6.786;2022-10-20T01:54:31;12.65;;;8.18;;
12493;SDS011;8260;51.422;6.786;2022-10-20T01:57:03;13.02;;;8.10;;
12493;SDS011;8260;51.422;6.786;2022-10-20T01:59:41;11.13;;;9.18;;
12493;SDS011;8260;51.422;6.786;2022-10-20T02:02:24;11.02;;;8.93;;
12493;SDS011;8260;51.422;6.786;2022-10-20T02:05:02;11.98;;;9.18;;
12493;SDS011;8260;51.422;6.786;2022-10-20T02:07:32;10.13;;;8.48;;
12493;SDS011;8260;51.422;6.786;2022-10-20T02:10:02;11.70;;;8.45;;
12493;SDS011;8260;51.422;6.786;2022-10-20T02:12:33;10.68;;;8.77;;
12493;SDS011;8260;51.422;6.786;2022-10-20T02:15:05;12.98;;;8.85;;
12493;SDS011;8260;51.422;6.786;2022-10-20T02:17:34;11.70;;;8.88;;
12493;SDS011;8260;51.422;6.786;2022-10-20T02:20:05;14.95;;;9.32;;
12493;SDS011;8260;51.422;6.786;2022-10-20T02:22:33;10.10;;;8.60;;
12493;SDS011;8260;51.422;6.786;2022-10-20T02:25:03;13.00;;;8.95;;
12493;SDS011;8260;51.422;6.786;2022-10-20T02:27:32;14.52;;;10.45;;
12493;SDS011;8260;51.422;6.786;2022-10-20T02:30:03;13.32;;;9.25;;
12493;SDS011;8260;51.422;6.786;2022-10-20T02:32:34;12.55;;;9.48;;
12493;SDS011;8260;51.422;6.786;2022-10-20T02:35:04;14.00;;;9.52;;
12493;SDS011;8260;51.422;6.786;2022-10-20T02:37:32;17.45;;;10.60;;
12493;SDS011;8260;51.422;6.786;2022-10-20T02:40:01;13.70;;;9.20;;
12493;SDS011;8260;51.422;6.786;2022-10-20T02:42:30;14.25;;;9.60;;
12493;SDS011;8260;51.422;6.786;2022-10-20T02:44:59;12.55;;;9.30;;
12493;SDS011;8260;51.422;6.786;2022-10-20T02:47:27;16.23;;;9.50;;
12493;SDS011;8260;51.422;6.786;2022-10-20T02:49:57;13.18;;;9.93;;
12493;SDS011;8260;51.422;6.786;2022-10-20T02:52:26;13.98;;;10.48;;
12493;SDS011;8260;51.422;6.786;2022-10-20T02:54:55;13.13;;;9.10;;
12493;SDS011;8260;51.422;6.786;2022-10-20T02:57:23;11.35;;;8.73;;
12493;SDS011;8260;51.422;6.786;2022-10-20T02:59:52;13.20;;;8.93;;
12493;SDS011;8260;51.422;6.786;2022-10-20T03:02:21;13.65;;;8.65;;
12493;SDS011;8260;51.422;6.786;2022-10-20T03:04:49;14.18;;;9.15;;
12493;SDS011;8260;51.422;6.786;2022-10-20T03:07:19;15.13;;;9.15;;
12493;SDS011;8260;51.422;6.786;2022-10-20T03:09:48;18.13;;;9.48;;
12493;SDS011;8260;51.422;6.786;2022-10-20T03:12:16;12.32;;;8.98;;
12493;SDS011;8260;51.422;6.786;2022-10-20T03:14:44;13.90;;;9.38;;
12493;SDS011;8260;51.422;6.786;2022-10-20T03:17:13;15.73;;;10.88;;
12493;SDS011;8260;51.422;6.786;2022-10-20T03:19:41;11.23;;;9.63;;
12493;SDS011;8260;51.422;6.786;2022-10-20T03:22:10;11.95;;;8.88;;
12493;SDS011;8260;51.422;6.786;2022-10-20T03:24:39;12.05;;;9.60;;
12493;SDS011;8260;51.422;6.786;2022-10-20T03:27:08;13.55;;;9.70;;
12493;SDS011;8260;51.422;6.786;2022-10-20T03:29:36;14.02;;;8.88;;
12493;SDS011;8260;51.422;6.786;2022-10-20T03:32:05;13.70;;;8.93;;
12493;SDS011;8260;51.422;6.786;2022-10-20T03:34:33;10.50;;;9.40;;
12493;SDS011;8260;51.422;6.786;2022-10-20T03:37:02;12.55;;;9.57;;
12493;SDS011;8260;51.422;6.786;2022-10-20T03:39:30;14.32;;;9.45;;
12493;SDS011;8260;51.422;6.786;2022-10-20T03:42:00;11.93;;;9.40;;
12493;SDS011;8260;51.422;6.786;2022-10-20T03:44:28;13.68;;;9.05;;
12493;SDS011;8260;51.422;6.786;2022-10-20T03:46:57;12.65;;;9.10;;
12493;SDS011;8260;51.422;6.786;2022-10-20T03:49:25;13.85;;;8.82;;
12493;SDS011;8260;51.422;6.786;2022-10-20T03:51:54;17.60;;;9.00;;
12493;SDS011;8260;51.422;6.786;2022-10-20T03:54:22;13.32;;;9.45;;
12493;SDS011;8260;51.422;6.786;2022-10-20T03:56:51;13.45;;;9.68;;
12493;SDS011;8260;51.422;6.786;2022-10-20T03:59:20;14.43;;;9.25;;
12493;SDS011;8260;51.422;6.786;2022-10-20T04:01:54;12.30;;;8.80;;
12493;SDS011;8260;51.422;6.786;2022-10-20T04:04:23;11.30;;;9.65;;
12493;SDS011;8260;51.422;6.786;2022-10-20T04:06:52;14.27;;;8.60;;
12493;SDS011;8260;51.422;6.786;2022-10-20T04:09:20;12.80;;;8.85;;
12493;SDS011;8260;51.422;6.786;2022-10-20T04:11:48;12.30;;;9.52;;
12493;SDS011;8260;51.422;6.786;2022-10-20T04:14:17;14.80;;;9.02;;
12493;SDS011;8260;51.422;6.786;2022-10-20T04:16:47;14.68;;;8.90;;
12493;SDS011;8260;51.422;6.786;2022-10-20T04:19:15;11.20;;;9.52;;
12493;SDS011;8260;51.422;6.786;2022-10-20T04:21:43;11.82;;;9.45;;
12493;SDS011;8260;51.422;6.786;2022-10-20T04:24:12;14.80;;;9.10;;
12493;SDS011;8260;51.422;6.786;2022-10-20T04:26:40;11.57;;;8.43;;
12493;SDS011;8260;51.422;6.786;2022-10-20T04:29:09;10.77;;;9.00;;
12493;SDS011;8260;51.422;6.786;2022-10-20T04:31:37;11.60;;;9.85;;
12493;SDS011;8260;51.422;6.786;2022-10-20T04:34:11;15.75;;;9.15;;
12493;SDS011;8260;51.422;6.786;2022-10-20T04:36:40;13.40;;;9.23;;
12493;SDS011;8260;51.422;6.786;2022-10-20T04:39:08;15.80;;;10.13;;
12493;SDS011;8260;51.422;6.786;2022-10-20T04:41:37;12.25;;;9.45;;
12493;SDS011;8260;51.422;6.786;2022-10-20T04:44:05;14.57;;;9.55;;
12493;SDS011;8260;51.422;6.786;2022-10-20T04:46:34;16.52;;;9.68;;
12493;SDS011;8260;51.422;6.786;2022-10-20T04:49:03;12.52;;;9.60;;
12493;SDS011;8260;51.422;6.786;2022-10-20T04:51:32;13.27;;;8.57;;
12493;SDS011;8260;51.422;6.786;2022-10-20T04:54:01;11.60;;;9.20;;
12493;SDS011;8260;51.422;6.786;2022-10-20T04:56:30;10.75;;;9.65;;
12493;SDS011;8260;51.422;6.786;2022-10-20T04:58:59;17.85;;;8.25;;
12493;SDS011;8260;51.422;6.786;2022-10-20T05:01:28;13.85;;;9.45;;
12493;SDS011;8260;51.422;6.786;2022-10-20T05:03:57;19.00;;;8.60;;
12493;SDS011;8260;51.422;6.786;2022-10-20T05:06:26;13.77;;;9.30;;
12493;SDS011;8260;51.422;6.786;2022-10-20T05:08:57;13.23;;;10.13;;
12493;SDS011;8260;51.422;6.786;2022-10-20T05:11:27;12.48;;;9.43;;
12493;SDS011;8260;51.422;6.786;2022-10-20T05:13:55;13.85;;;9.68;;
12493;SDS011;8260;51.422;6.786;2022-10-20T05:16:24;16.30;;;9.75;;
12493;SDS011;8260;51.422;6.786;2022-10-20T05:18:52;14.75;;;9.82;;
12493;SDS011;8260;51.422;6.786;2022-10-20T05:21:23;15.35;;;9.75;;
12493;SDS011;8260;51.422;6.786;2022-10-20T05:23:53;11.32;;;9.05;;
12493;SDS011;8260;51.422;6.786;2022-10-20T05:26:24;10.10;;;8.90;;
12493;SDS011;8260;51.422;6.786;2022-10-20T05:28:53;14.02;;;9.10;;
12493;SDS011;8260;51.422;6.786;2022-10-20T05:31:22;11.95;;;9.07;;
12493;SDS011;8260;51.422;6.786;2022-10-20T05:33:51;13.13;;;9.20;;
12493;SDS011;8260;51.422;6.786;2022-10-20T05:36:20;12.57;;;9.18;;
12493;SDS011;8260;51.422;6.786;2022-10-20T05:38:49;12.60;;;9.25;;
12493;SDS011;8260;51.422;6.786;2022-10-20T05:41:19;11.30;;;9.32;;
12493;SDS011;8260;51.422;6.786;2022-10-20T05:43:50;14.77;;;9.40;;
12493;SDS011;8260;51.422;6.786;2022-10-20T05:46:19;11.18;;;8.88;;
12493;SDS011;8260;51.422;6.786;2022-10-20T05:48:47;13.85;;;9.48;;
12493;SDS011;8260;51.422;6.786;2022-10-20T05:51:16;12.35;;;9.13;;
12493;SDS011;8260;51.422;6.786;2022-10-20T05:53:45;16.40;;;10.90;;
12493;SDS011;8260;51.422;6.786;2022-10-20T05:56:14;13.18;;;10.05;;
12493;SDS011;8260;51.422;6.786;2022-10-20T05:58:43;16.17;;;9.95;;
12493;SDS011;8260;51.422;6.786;2022-10-20T06:01:15;14.13;;;10.63;;
12493;SDS011;8260;51.422;6.786;2022-10-20T06:03:48;18.98;;;10.20;;
12493;SDS011;8260;51.422;6.786;2022-10-20T06:06:17;16.73;;;10.10;;
12493;SDS011;8260;51.422;6.786;2022-10-20T06:08:45;12.55;;;9.77;;
12493;SDS011;8260;51.422;6.786;2022-10-20T06:11:14;12.38;;;8.82;;
12493;SDS011;8260;51.422;6.786;2022-10-20T06:13:43;13.70;;;9.80;;
12493;SDS011;8260;51.422;6.786;2022-10-20T06:16:18;14.30;;;9.43;;
12493;SDS011;8260;51.422;6.786;2022-10-20T06:18:47;14.05;;;9.07;;
12493;SDS011;8260;51.422;6.786;2022-10-20T06:21:16;14.77;;;9.57;;
12493;SDS011;8260;51.422;6.786;2022-10-20T06:23:46;10.95;;;9.10;;
12493;SDS011;8260;51.422;6.786;2022-10-20T06:26:15;13.55;;;9.48;;
12493;SDS011;8260;51.422;6.786;2022-10-20T06:28:44;12.57;;;9.38;;
12493;SDS011;8260;51.422;6.786;2022-10-20T06:31:14;11.00;;;9.23;;
12493;SDS011;8260;51.422;6.786;2022-10-20T06:33:44;12.90;;;9.80;;
12493;SDS011;8260;51.422;6.786;2022-10-20T06:36:13;14.57;;;9.77;;
12493;SDS011;8260;51.422;6.786;2022-10-20T06:38:41;12.27;;;9.48;;
12493;SDS011;8260;51.422;6.786;2022-10-20T06:41:11;12.52;;;9.50;;
12493;SDS011;8260;51.422;6.786;2022-10-20T06:43:39;13.15;;;9.38;;
12493;SDS011;8260;51.422;6.786;2022-10-20T06:46:10;12.68;;;9.15;;
12493;SDS011;8260;51.422;6.786;2022-10-20T06:48:38;10.75;;;8.32;;
12493;SDS011;8260;51.422;6.786;2022-10-20T06:51:09;13.32;;;8.77;;
12493;SDS011;8260;51.422;6.786;2022-10-20T06:53:38;10.00;;;8.82;;
12493;SDS011;8260;51.422;6.786;2022-10-20T06:56:12;13.55;;;7.97;;
12493;SDS011;8260;51.422;6.786;2022-10-20T06:58:42;10.18;;;8.23;;
12493;SDS011;8260;51.422;6.786;2022-10-20T07:01:12;8.55;;;7.55;;
12493;SDS011;8260;51.422;6.786;2022-10-20T07:03:41;10.77;;;8.05;;
12493;SDS011;8260;51.422;6.786;2022-10-20T07:06:11;10.85;;;8.10;;
12493;SDS011;8260;51.422;6.786;2022-10-20T07:08:40;13.00;;;7.65;;
12493;SDS011;8260;51.422;6.786;2022-10-20T07:11:10;10.93;;;8.15;;
12493;SDS011;8260;51.422;6.786;2022-10-20T07:13:39;9.68;;;7.38;;
12493;SDS011;8260;51.422;6.786;2022-10-20T07:16:09;11.55;;;8.52;;
12493;SDS011;8260;51.422;6.786;2022-10-20T07:18:38;11.23;;;8.10;;
12493;SDS011;8260;51.422;6.786;2022-10-20T07:21:07;10.30;;;7.30;;
12493;SDS011;8260;51.422;6.786;2022-10-20T07:23:38;14.13;;;8.00;;
12493;SDS011;8260;51.422;6.786;2022-10-20T07:26:07;9.02;;;7.05;;
12493;SDS011;8260;51.422;6.786;2022-10-20T07:28:36;7.70;;;6.95;;
12493;SDS011;8260;51.422;6.786;2022-10-20T07:31:05;10.43;;;7.63;;
12493;SDS011;8260;51.422;6.786;2022-10-20T07:33:34;13.77;;;8.15;;
12493;SDS011;8260;51.422;6.786;2022-10-20T07:36:09;10.65;;;8.02;;
12493;SDS011;8260;51.422;6.786;2022-10-20T07:38:40;11.38;;;7.70;;
12493;SDS011;8260;51.422;6.786;2022-10-20T07:41:08;12.18;;;8.02;;
12493;SDS011;8260;51.422;6.786;2022-10-20T07:43:37;9.40;;;8.10;;
12493;SDS011;8260;51.422;6.786;2022-10-20T07:46:06;10.50;;;8.45;;
12493;SDS011;8260;51.422;6.786;2022-10-20T07:48:35;9.18;;;8.25;;
12493;SDS011;8260;51.422;6.786;2022-10-20T07:51:14;10.68;;;8.15;;
12493;SDS011;8260;51.422;6.786;2022-10-20T07:53:44;9.63;;;8.63;;
12493;SDS011;8260;51.422;6.786;2022-10-20T07:56:12;10.48;;;7.50;;
12493;SDS011;8260;51.422;6.786;2022-10-20T07:58:41;11.35;;;7.63;;
12493;SDS011;8260;51.422;6.786;2022-10-20T08:01:10;11.00;;;8.25;;
12493;SDS011;8260;51.422;6.786;2022-10-20T08:03:38;10.20;;;8.10;;
12493;SDS011;8260;51.422;6.786;2022-10-20T08:06:06;8.57;;;7.63;;
12493;SDS011;8260;51.422;6.786;2022-10-20T08:08:35;11.63;;;8.15;;
12493;SDS011;8260;51.422;6.786;2022-10-20T08:11:05;10.48;;;8.82;;
12493;SDS011;8260;51.422;6.786;2022-10-20T08:13:35;10.07;;;7.85;;
12493;SDS011;8260;51.422;6.786;2022-10-20T08:16:06;10.52;;;8.07;;
12493;SDS011;8260;51.422;6.786;2022-10-20T08:18:41;10.60;;;7.72;;
12493;SDS011;8260;51.422;6.786;2022-10-20T08:21:27;10.57;;;8.27;;
12493;SDS011;8260;51.422;6.786;2022-10-20T08:23:56;8.57;;;7.53;;
12493;SDS011;8260;51.422;6.786;2022-10-20T08:26:26;10.48;;;7.47;;
12493;SDS011;8260;51.422;6.786;2022-10-20T08:28:54;8.57;;;7.68;;
12493;SDS011;8260;51.422;6.786;2022-10-20T08:31:23;9.10;;;7.88;;
12493;SDS011;8260;51.422;6.786;2022-10-20T08:33:51;9.45;;;7.05;;
12493;SDS011;8260;51.422;6.786;2022-10-20T08:36:20;10.02;;;7.40;;
12493;SDS011;8260;51.422;6.786;2022-10-20T08:38:48;9.48;;;6.68;;
12493;SDS011;8260;51.422;6.786;2022-10-20T08:41:18;9.27;;;6.65;;
12493;SDS011;8260;51.422;6.786;2022-10-20T08:43:49;8.32;;;7.40;;
12493;SDS011;8260;51.422;6.786;2022-10-20T08:46:19;8.88;;;7.90;;
12493;SDS011;8260;51.422;6.786;2022-10-20T08:48:47;8.95;;;6.90;;
12493;SDS011;8260;51.422;6.786;2022-10-20T08:51:17;10.48;;;7.38;;
12493;SDS011;8260;51.422;6.786;2022-10-20T08:53:46;13.93;;;7.65;;
12493;SDS011;8260;51.422;6.786;2022-10-20T08:56:15;8.73;;;7.82;;
12493;SDS011;8260;51.422;6.786;2022-10-20T08:58:44;9.05;;;7.35;;
12493;SDS011;8260;51.422;6.786;2022-10-20T09:01:18;9.52;;;7.60;;
12493;SDS011;8260;51.422;6.786;2022-10-20T09:03:48;8.68;;;7.65;;
12493;SDS011;8260;51.422;6.786;2022-10-20T09:06:18;9.70;;;6.97;;
12493;SDS011;8260;51.422;6.786;2022-10-20T09:08:46;9.77;;;6.97;;
12493;SDS011;8260;51.422;6.786;2022-10-20T09:11:16;9.25;;;6.65;;
12493;SDS011;8260;51.422;6.786;2022-10-20T09:13:45;9.07;;;7.65;;
12493;SDS011;8260;51.422;6.786;2022-10-20T09:16:22;9.50;;;6.85;;
12493;SDS011;8260;51.422;6.786;2022-10-20T09:19:14;9.93;;;7.65;;
12493;SDS011;8260;51.422;6.786;2022-10-20T09:21:43;11.40;;;7.43;;
12493;SDS011;8260;51.422;6.786;2022-10-20T09:24:12;12.80;;;7.63;;
12493;SDS011;8260;51.422;6.786;2022-10-20T09:26:42;12.05;;;7.65;;
12493;SDS011;8260;51.422;6.786;2022-10-20T09:29:33;9.75;;;6.72;;
12493;SDS011;8260;51.422;6.786;2022-10-20T09:32:09;9.05;;;8.15;;
12493;SDS011;8260;51.422;6.786;2022-10-20T09:35:10;9.40;;;7.53;;
12493;SDS011;8260;51.422;6.786;2022-10-20T09:37:39;14.00;;;8.07;;
12493;SDS011;8260;51.422;6.786;2022-10-20T09:40:12;10.70;;;7.63;;
12493;SDS011;8260;51.422;6.786;2022-10-20T09:42:42;9.73;;;7.43;;
12493;SDS011;8260;51.422;6.786;2022-10-20T09:45:15;11.27;;;7.60;;
12493;SDS011;8260;51.422;6.786;2022-10-20T09:47:49;13.73;;;7.15;;
12493;SDS011;8260;51.422;6.786;2022-10-20T09:50:18;13.35;;;7.75;;
12493;SDS011;8260;51.422;6.786;2022-10-20T09:52:48;9.00;;;7.13;;
12493;SDS011;8260;51.422;6.786;2022-10-20T09:55:19;10.13;;;7.25;;
12493;SDS011;8260;51.422;6.786;2022-10-20T09:57:50;12.13;;;7.53;;
12493;SDS011;8260;51.422;6.786;2022-10-20T10:00:21;10.27;;;6.97;;
12493;SDS011;8260;51.422;6.786;2022-10-20T10:03:14;9.00;;;7.15;;
12493;SDS011;8260;51.422;6.786;2022-10-20T10:05:47;8.70;;;7.38;;
12493;SDS011;8260;51.422;6.786;2022-10-20T10:08:16;10.82;;;7.78;;
12493;SDS011;8260;51.422;6.786;2022-10-20T10:10:55;11.18;;;7.72;;
12493;SDS011;8260;51.422;6.786;2022-10-20T10:13:25;9.27;;;7.55;;
12493;SDS011;8260;51.422;6.786;2022-10-20T10:16:00;11.70;;;7.78;;
12493;SDS011;8260;51.422;6.786;2022-10-20T10:18:31;9.13;;;8.05;;
12493;SDS011;8260;51.422;6.786;2022-10-20T10:21:01;10.88;;;7.60;;
12493;SDS011;8260;51.422;6.786;2022-10-20T10:23:30;8.77;;;7.15;;
12493;SDS011;8260;51.422;6.786;2022-10-20T10:26:02;9.40;;;7.30;;
12493;SDS011;8260;51.422;6.786;2022-10-20T10:28:32;9.27;;;7.95;;
12493;SDS011;8260;51.422;6.786;2022-10-20T10:33:50;9.60;;;7.25;;
12493;SDS011;8260;51.422;6.786;2022-10-20T10:36:27;9.18;;;7.30;;
12493;SDS011;8260;51.422;6.786;2022-10-20T10:38:57;9.35;;;7.45;;
12493;SDS011;8260;51.422;6.786;2022-10-20T10:44:13;13.25;;;8.38;;
12493;SDS011;8260;51.422;6.786;2022-10-20T10:46:48;9.95;;;8.02;;
12493;SDS011;8260;51.422;6.786;2022-10-20T10:49:33;10.25;;;8.52;;
12493;SDS011;8260;51.422;6.786;2022-10-20T10:52:08;10.68;;;8.48;;
12493;SDS011;8260;51.422;6.786;2022-10-20T10:54:47;14.80;;;8.95;;
12493;SDS011;8260;51.422;6.786;2022-10-20T10:57:22;10.18;;;8.25;;
12493;SDS011;8260;51.422;6.786;2022-10-20T10:59:53;10.00;;;8.10;;
12493;SDS011;8260;51.422;6.786;2022-10-20T11:02:29;10.63;;;8.57;;
12493;SDS011;8260;51.422;6.786;2022-10-20T11:05:15;11.60;;;8.85;;
12493;SDS011;8260;51.422;6.786;2022-10-20T11:07:49;11.93;;;8.85;;
12493;SDS011;8260;51.422;6.786;2022-10-20T11:10:20;9.30;;;8.40;;
12493;SDS011;8260;51.422;6.786;2022-10-20T11:12:56;11.32;;;8.20;;
12493;SDS011;8260;51.422;6.786;2022-10-20T11:15:31;14.68;;;9.32;;
12493;SDS011;8260;51.422;6.786;2022-10-20T11:18:04;14.63;;;9.02;;
12493;SDS011;8260;51.422;6.786;2022-10-20T11:20:37;10.23;;;9.07;;
12493;SDS011;8260;51.422;6.786;2022-10-20T11:25:53;13.25;;;8.85;;
12493;SDS011;8260;51.422;6.786;2022-10-20T11:28:24;10.80;;;8.55;;
12493;SDS011;8260;51.422;6.786;2022-10-20T11:30:54;15.85;;;9.55;;
12493;SDS011;8260;51.422;6.786;2022-10-20T11:33:25;11.32;;;9.23;;
12493;SDS011;8260;51.422;6.786;2022-10-20T11:35:56;10.98;;;9.88;;
12493;SDS011;8260;51.422;6.786;2022-10-20T11:38:26;10.55;;;9.05;;
12493;SDS011;8260;51.422;6.786;2022-10-20T11:40:58;12.05;;;9.15;;
12493;SDS011;8260;51.422;6.786;2022-10-20T11:43:29;11.88;;;9.73;;
12493;SDS011;8260;51.422;6.786;2022-10-20T11:46:01;15.35;;;10.30;;
12493;SDS011;8260;51.422;6.786;2022-10-20T11:48:33;13.30;;;10.48;;
12493;SDS011;8260;51.422;6.786;2022-10-20T11:56:41;18.00;;;11.52;;
12493;SDS011;8260;51.422;6.786;2022-10-20T11:59:34;14.95;;;10.93;;
12493;SDS011;8260;51.422;6.786;2022-10-20T12:02:13;14.57;;;10.93;;
12493;SDS011;8260;51.422;6.786;2022-10-20T12:04:54;17.73;;;12.10;;
12493;SDS011;8260;51.422;6.786;2022-10-20T12:07:30;19.17;;;12.70;;
12493;SDS011;8260;51.422;6.786;2022-10-20T12:10:18;16.70;;;13.32;;
12493;SDS011;8260;51.422;6.786;2022-10-20T12:12:52;15.65;;;12.35;;
12493;SDS011;8260;51.422;6.786;2022-10-20T12:15:23;17.42;;;13.38;;
12493;SDS011;8260;51.422;6.786;2022-10-20T12:17:53;17.30;;;12.95;;
12493;SDS011;8260;51.422;6.786;2022-10-20T12:25:53;20.92;;;13.57;;
12493;SDS011;8260;51.422;6.786;2022-10-20T12:28:38;17.88;;;13.73;;
12493;SDS011;8260;51.422;6.786;2022-10-20T12:31:07;21.48;;;14.95;;
12493;SDS011;8260;51.422;6.786;2022-10-20T12:33:37;17.95;;;14.40;;
12493;SDS011;8260;51.422;6.786;2022-10-20T12:36:13;18.27;;;14.48;;
12493;SDS011;8260;51.422;6.786;2022-10-20T12:38:50;21.70;;;14.50;;
12493;SDS011;8260;51.422;6.786;2022-10-20T12:41:23;17.27;;;14.02;;
12493;SDS011;8260;51.422;6.786;2022-10-20T12:43:57;19.75;;;14.65;;
12493;SDS011;8260;51.422;6.786;2022-10-20T12:46:27;19.23;;;14.60;;
12493;SDS011;8260;51.422;6.786;2022-10-20T12:48:57;19.63;;;14.13;;
12493;SDS011;8260;51.422;6.786;2022-10-20T12:51:29;20.13;;;14.27;;
12493;SDS011;8260;51.422;6.786;2022-10-20T12:54:02;21.17;;;15.63;;
12493;SDS011;8260;51.422;6.786;2022-10-20T12:56:33;18.85;;;14.57;;
12493;SDS011;8260;51.422;6.786;2022-10-20T12:59:08;22.05;;;14.80;;
12493;SDS011;8260;51.422;6.786;2022-10-20T13:07:10;18.98;;;14.38;;
12493;SDS011;8260;51.422;6.786;2022-10-20T13:09:53;17.67;;;14.68;;
12493;SDS011;8260;51.422;6.786;2022-10-20T13:12:28;16.73;;;14.63;;
12493;SDS011;8260;51.422;6.786;2022-10-20T13:15:09;20.30;;;14.65;;
12493;SDS011;8260;51.422;6.786;2022-10-20T13:17:44;18.00;;;14.68;;
12493;SDS011;8260;51.422;6.786;2022-10-20T13:20:19;18.85;;;14.75;;
12493;SDS011;8260;51.422;6.786;2022-10-20T13:22:48;18.50;;;14.43;;
12493;SDS011;8260;51.422;6.786;2022-10-20T13:25:25;18.25;;;14.52;;
12493;SDS011;8260;51.422;6.786;2022-10-20T13:28:06;16.00;;;14.30;;
12493;SDS011;8260;51.422;6.786;2022-10-20T13:30:46;17.63;;;15.10;;
12493;SDS011;8260;51.422;6.786;2022-10-20T13:33:17;16.50;;;13.95;;
12493;SDS011;8260;51.422;6.786;2022-10-20T13:36:10;19.75;;;14.57;;
12493;SDS011;8260;51.422;6.786;2022-10-20T13:38:41;19.13;;;13.30;;
12493;SDS011;8260;51.422;6.786;2022-10-20T13:41:12;16.10;;;12.82;;
12493;SDS011;8260;51.422;6.786;2022-10-20T13:43:47;18.00;;;13.88;;
12493;SDS011;8260;51.422;6.786;2022-10-20T13:46:29;16.38;;;12.82;;
12493;SDS011;8260;51.422;6.786;2022-10-20T13:49:06;15.45;;;12.52;;
12493;SDS011;8260;51.422;6.786;2022-10-20T13:51:39;15.90;;;12.88;;
12493;SDS011;8260;51.422;6.786;2022-10-20T13:54:13;14.60;;;13.00;;
12493;SDS011;8260;51.422;6.786;2022-10-20T13:56:45;14.68;;;12.55;;
12493;SDS011;8260;51.422;6.786;2022-10-20T13:59:18;16.50;;;13.02;;
12493;SDS011;8260;51.422;6.786;2022-10-20T14:01:50;16.38;;;13.10;;
12493;SDS011;8260;51.422;6.786;2022-10-20T14:04:23;13.75;;;12.30;;
12493;SDS011;8260;51.422;6.786;2022-10-20T14:06:52;16.75;;;12.20;;
12493;SDS011;8260;51.422;6.786;2022-10-20T14:09:21;17.35;;;12.32;;
12493;SDS011;8260;51.422;6.786;2022-10-20T14:11:50;14.60;;;11.90;;
12493;SDS011;8260;51.422;6.786;2022-10-20T14:14:20;16.75;;;11.77;;
12493;SDS011;8260;51.422;6.786;2022-10-20T14:16:52;13.43;;;12.02;;
12493;SDS011;8260;51.422;6.786;2022-10-20T14:19:21;12.65;;;11.38;;
12493;SDS011;8260;51.422;6.786;2022-10-20T14:21:53;13.77;;;11.77;;
12493;SDS011;8260;51.422;6.786;2022-10-20T14:24:25;12.80;;;11.23;;
12493;SDS011;8260;51.422;6.786;2022-10-20T14:26:56;12.05;;;10.85;;
12493;SDS011;8260;51.422;6.786;2022-10-20T14:29:26;19.65;;;12.18;;
12493;SDS011;8260;51.422;6.786;2022-10-20T14:31:57;12.80;;;10.90;;
12493;SDS011;8260;51.422;6.786;2022-10-20T14:34:27;12.00;;;10.38;;
12493;SDS011;8260;51.422;6.786;2022-10-20T14:36:56;12.88;;;10.02;;
12493;SDS011;8260;51.422;6.786;2022-10-20T14:39:31;12.30;;;9.88;;
12493;SDS011;8260;51.422;6.786;2022-10-20T14:42:01;11.18;;;9.05;;
12493;SDS011;8260;51.422;6.786;2022-10-20T14:44:30;12.63;;;9.60;;
12493;SDS011;8260;51.422;6.786;2022-10-20T14:47:02;11.27;;;9.00;;
12493;SDS011;8260;51.422;6.786;2022-10-20T14:49:32;12.50;;;8.70;;
12493;SDS011;8260;51.422;6.786;2022-10-20T14:52:03;12.13;;;8.88;;
12493;SDS011;8260;51.422;6.786;2022-10-20T14:54:34;12.98;;;8.68;;
12493;SDS011;8260;51.422;6.786;2022-10-20T14:59:52;14.95;;;8.63;;
12493;SDS011;8260;51.422;6.786;2022-10-20T15:02:25;12.85;;;8.75;;
12493;SDS011;8260;51.422;6.786;2022-10-20T15:04:54;13.02;;;8.63;;
12493;SDS011;8260;51.422;6.786;2022-10-20T15:07:24;14.70;;;8.15;;
12493;SDS011;8260;51.422;6.786;2022-10-20T15:09:55;9.55;;;8.40;;
12493;SDS011;8260;51.422;6.786;2022-10-20T15:12:31;10.75;;;7.85;;
12493;SDS011;8260;51.422;6.786;2022-10-20T15:15:02;13.27;;;8.07;;
12493;SDS011;8260;51.422;6.786;2022-10-20T15:17:36;10.75;;;8.50;;
12493;SDS011;8260;51.422;6.786;2022-10-20T15:20:28;11.50;;;9.38;;
12493;SDS011;8260;51.422;6.786;2022-10-20T15:22:58;10.70;;;9.27;;
12493;SDS011;8260;51.422;6.786;2022-10-20T15:25:27;12.73;;;9.43;;
12493;SDS011;8260;51.422;6.786;2022-10-20T15:27:57;12.13;;;9.35;;
12493;SDS011;8260;51.422;6.786;2022-10-20T15:30:25;11.02;;;9.27;;
12493;SDS011;8260;51.422;6.786;2022-10-20T15:32:56;14.55;;;9.57;;
12493;SDS011;8260;51.422;6.786;2022-10-20T15:35:24;10.45;;;9.43;;
12493;SDS011;8260;51.422;6.786;2022-10-20T15:37:56;12.70;;;10.32;;
12493;SDS011;8260;51.422;6.786;2022-10-20T15:40:24;12.30;;;10.45;;